createdAt,value
2022-12-26T00:02:26.443Z,10.42
2022-12-26T00:04:56.481Z,10.18
2022-12-26T00:07:26.594Z,10.12
2022-12-26T00:09:56.353Z,10.34
2022-12-26T00:12:25.791Z,10.37
2022-12-26T00:14:55.554Z,10.31
2022-12-26T00:17:25.288Z,10.56
2022-12-26T00:19:55.062Z,10.44
2022-12-26T00:22:24.501Z,10.47
2022-12-26T00:24:54.568Z,10.44
2022-12-26T00:27:24.302Z,10.23
2022-12-26T00:29:54.452Z,10.24
2022-12-26T00:32:24.083Z,10.27
2022-12-26T00:34:53.840Z,10.40
2022-12-26T00:37:23.669Z,10.63
2022-12-26T00:39:53.699Z,10.48
2022-12-26T00:42:23.145Z,10.48
2022-12-26T00:44:52.907Z,10.41
2022-12-26T00:47:22.659Z,10.16
2022-12-26T00:50:12.355Z,10.35
2022-12-26T00:52:24.055Z,10.20
2022-12-26T00:54:53.808Z,10.35
2022-12-26T00:57:23.551Z,10.29
2022-12-26T00:59:53.303Z,10.10
2022-12-26T01:02:38.449Z,9.94
2022-12-26T01:05:12.056Z,10.17
2022-12-26T01:08:22.792Z,10.25
2022-12-26T01:10:14.973Z,10.20
2022-12-26T01:12:44.742Z,10.27
2022-12-26T01:15:14.604Z,10.27
2022-12-26T01:17:44.371Z,10.10
2022-12-26T01:20:14.965Z,10.36
2022-12-26T01:22:44.807Z,10.40
2022-12-26T01:25:14.651Z,10.30
2022-12-26T01:27:44.852Z,10.28
2022-12-26T01:30:14.565Z,10.25
2022-12-26T01:32:44.623Z,10.37
2022-12-26T01:35:14.091Z,10.15
2022-12-26T01:37:43.844Z,10.38
2022-12-26T01:40:15.036Z,10.32
2022-12-26T01:42:44.777Z,10.12
2022-12-26T01:45:29.838Z,10.10
2022-12-26T01:48:11.230Z,10.17
2022-12-26T01:50:44.132Z,10.20
2022-12-26T01:53:16.905Z,10.14
2022-12-26T01:55:49.771Z,10.05
2022-12-26T01:58:22.301Z,9.93
2022-12-26T02:00:52.745Z,10.04
2022-12-26T02:03:40.764Z,10.05
2022-12-26T02:06:13.824Z,9.95
2022-12-26T02:08:45.609Z,10.14
2022-12-26T02:11:41.585Z,9.96
2022-12-26T02:14:11.564Z,9.94
2022-12-26T02:16:43.236Z,10.12
2022-12-26T02:19:21.767Z,10.10
2022-12-26T02:22:16.635Z,10.13
2022-12-26T02:25:10.500Z,10.07
2022-12-26T02:27:49.804Z,9.98
2022-12-26T02:30:44.373Z,10.16
2022-12-26T02:33:25.286Z,10.08
2022-12-26T02:36:12.464Z,10.07
2022-12-26T02:38:56.661Z,9.97
2022-12-26T02:41:44.059Z,9.99
2022-12-26T02:44:46.155Z,9.95
2022-12-26T02:47:27.785Z,9.87
2022-12-26T02:50:30.077Z,10.06
2022-12-26T02:53:23.277Z,9.89
2022-12-26T02:56:13.684Z,9.96
2022-12-26T02:59:56.339Z,10.09
2022-12-26T03:02:12.605Z,10.06
2022-12-26T03:05:01.589Z,10.05
2022-12-26T03:07:52.187Z,10.16
2022-12-26T03:10:45.230Z,9.88
2022-12-26T03:13:19.722Z,9.88
2022-12-26T03:16:12.740Z,9.90
2022-12-26T03:18:57.847Z,9.91
2022-12-26T03:21:20.731Z,9.93
2022-12-26T03:23:55.172Z,10.04
2022-12-26T03:26:43.565Z,10.04
2022-12-26T03:29:34.628Z,9.95
2022-12-26T03:32:09.428Z,10.01
2022-12-26T03:34:45.118Z,9.99
2022-12-26T03:37:47.880Z,9.76
2022-12-26T03:40:44.820Z,9.91
2022-12-26T03:43:37.966Z,9.99
2022-12-26T03:49:46.464Z,9.97
2022-12-26T03:52:48.588Z,9.95
2022-12-26T03:55:47.962Z,9.97
2022-12-26T03:58:46.782Z,9.98
2022-12-26T04:01:37.426Z,10.08
2022-12-26T04:04:30.188Z,10.13
2022-12-26T04:07:20.746Z,10.12
2022-12-26T04:10:24.835Z,9.90
2022-12-26T04:13:13.445Z,9.96
2022-12-26T04:16:21.709Z,10.16
2022-12-26T04:19:24.407Z,9.86
2022-12-26T04:22:19.918Z,9.92
2022-12-26T04:25:15.744Z,10.02
2022-12-26T04:28:03.248Z,10.16
2022-12-26T04:30:52.570Z,10.02
2022-12-26T04:33:43.159Z,9.97
2022-12-26T04:36:34.408Z,9.83
2022-12-26T04:39:24.846Z,9.84
2022-12-26T04:42:15.349Z,9.80
2022-12-26T04:44:46.822Z,9.77
2022-12-26T04:47:18.083Z,9.88
2022-12-26T04:50:05.661Z,9.67
2022-12-26T04:52:52.849Z,9.80
2022-12-26T04:55:22.578Z,9.59
2022-12-26T04:57:52.420Z,9.66
2022-12-26T05:00:24.348Z,9.72
2022-12-26T05:03:18.238Z,9.69
2022-12-26T05:06:04.630Z,9.71
2022-12-26T05:08:58.363Z,9.67
2022-12-26T05:11:29.157Z,9.56
2022-12-26T05:13:59.837Z,9.44
2022-12-26T05:16:43.573Z,9.65
2022-12-26T05:19:34.046Z,9.52
2022-12-26T05:22:24.371Z,9.52
2022-12-26T05:25:12.428Z,9.82
2022-12-26T05:28:02.460Z,9.63
2022-12-26T05:30:32.400Z,9.66
2022-12-26T05:33:19.764Z,9.58
2022-12-26T05:35:49.504Z,9.52
2022-12-26T05:38:19.052Z,9.41
2022-12-26T05:40:49.563Z,9.51
2022-12-26T05:43:19.780Z,9.40
2022-12-26T05:45:49.591Z,9.50
2022-12-26T05:48:19.500Z,9.53
2022-12-26T05:50:49.356Z,9.26
2022-12-26T05:53:19.455Z,9.26
2022-12-26T05:55:49.205Z,9.26
2022-12-26T05:58:18.973Z,9.31
2022-12-26T06:00:48.961Z,9.31
2022-12-26T06:03:18.892Z,9.44
2022-12-26T06:05:48.694Z,9.44
2022-12-26T06:08:18.194Z,9.31
2022-12-26T06:10:47.800Z,9.43
2022-12-26T06:13:17.609Z,9.36
2022-12-26T06:15:47.354Z,9.31
2022-12-26T06:18:17.089Z,9.34
2022-12-26T06:20:46.809Z,9.17
2022-12-26T06:23:16.308Z,9.27
2022-12-26T06:25:46.018Z,9.09
2022-12-26T06:28:15.828Z,9.23
2022-12-26T06:30:45.846Z,9.36
2022-12-26T06:33:15.719Z,9.16
2022-12-26T06:35:46.213Z,9.22
2022-12-26T06:38:15.970Z,9.08
2022-12-26T06:40:46.017Z,8.94
2022-12-26T06:43:15.800Z,9.18
2022-12-26T06:45:45.515Z,9.10
2022-12-26T06:48:14.997Z,9.16
2022-12-26T06:50:44.714Z,9.22
2022-12-26T06:53:14.465Z,9.20
2022-12-26T06:55:44.235Z,9.07
2022-12-26T06:58:13.985Z,9.13
2022-12-26T07:00:43.848Z,9.05
2022-12-26T07:03:13.663Z,9.21
2022-12-26T07:05:43.832Z,9.05
2022-12-26T07:08:13.357Z,9.18
2022-12-26T07:10:43.094Z,9.04
2022-12-26T07:13:12.816Z,9.13
2022-12-26T07:15:42.539Z,9.05
2022-12-26T07:18:12.057Z,9.03
2022-12-26T07:20:41.780Z,9.18
2022-12-26T07:23:11.561Z,9.02
2022-12-26T07:25:41.368Z,9.11
2022-12-26T07:28:11.304Z,9.16
2022-12-26T07:30:41.061Z,9.13
2022-12-26T07:33:10.766Z,9.09
2022-12-26T07:35:40.492Z,9.02
2022-12-26T07:38:12.923Z,9.12
2022-12-26T07:40:42.775Z,9.13
2022-12-26T07:43:12.852Z,9.25
2022-12-26T07:45:45.859Z,9.17
2022-12-26T07:48:13.793Z,9.21
2022-12-26T07:50:45.345Z,9.20
2022-12-26T07:53:15.823Z,9.25
2022-12-26T07:55:45.580Z,9.26
2022-12-26T07:58:15.051Z,9.26
2022-12-26T08:00:45.148Z,9.05
2022-12-26T08:03:15.105Z,9.05
2022-12-26T08:05:50.037Z,9.10
2022-12-26T08:08:19.892Z,9.05
2022-12-26T08:10:49.794Z,9.16
2022-12-26T08:13:19.575Z,9.24
2022-12-26T08:15:49.354Z,9.36
2022-12-26T08:18:19.070Z,9.04
2022-12-26T08:20:49.533Z,9.39
2022-12-26T08:23:19.670Z,9.39
2022-12-26T08:25:49.410Z,9.56
2022-12-26T08:28:19.027Z,9.56
2022-12-26T08:30:49.920Z,9.25
2022-12-26T08:33:19.673Z,9.48
2022-12-26T08:35:49.743Z,9.61
2022-12-26T08:38:19.455Z,9.48
2022-12-26T08:40:59.413Z,9.75
2022-12-26T08:43:45.288Z,9.52
2022-12-26T08:46:11.506Z,9.52
2022-12-26T08:48:42.108Z,9.67
2022-12-26T08:51:17.943Z,9.77
2022-12-26T08:53:49.666Z,9.69
2022-12-26T08:56:23.027Z,9.87
2022-12-26T08:58:52.841Z,9.66
2022-12-26T09:01:28.132Z,9.89
2022-12-26T09:04:01.878Z,9.95
2022-12-26T09:06:33.927Z,10.13
2022-12-26T09:09:04.001Z,10.06
2022-12-26T09:11:34.258Z,10.12
2022-12-26T09:14:07.437Z,10.08
2022-12-26T09:16:49.342Z,10.13
2022-12-26T09:19:17.603Z,10.28
2022-12-26T09:21:48.284Z,10.09
2022-12-26T09:24:19.437Z,10.15
2022-12-26T09:26:49.241Z,10.14
2022-12-26T09:29:19.000Z,10.17
2022-12-26T09:31:48.788Z,10.29
2022-12-26T09:34:18.974Z,10.43
2022-12-26T09:36:48.717Z,10.43
2022-12-26T09:39:18.469Z,10.26
2022-12-26T09:41:56.838Z,10.31
2022-12-26T09:44:53.545Z,10.40
2022-12-26T09:47:34.837Z,10.39
2022-12-26T09:50:11.871Z,10.37
2022-12-26T09:52:53.289Z,10.59
2022-12-26T09:55:37.633Z,10.63
2022-12-26T09:58:15.078Z,10.37
2022-12-26T10:00:53.324Z,10.31
2022-12-26T10:03:24.923Z,10.37
2022-12-26T10:06:00.290Z,10.50
2022-12-26T10:08:48.860Z,10.20
2022-12-26T10:11:27.112Z,10.31
2022-12-26T10:14:00.046Z,10.14
2022-12-26T10:16:57.673Z,10.27
2022-12-26T10:19:45.722Z,10.02
2022-12-26T10:22:28.416Z,9.76
2022-12-26T10:25:01.353Z,9.58
2022-12-26T10:27:34.132Z,9.56
2022-12-26T10:30:10.250Z,9.47
2022-12-26T10:32:43.188Z,9.47
2022-12-26T10:35:27.812Z,9.66
2022-12-26T10:38:00.610Z,9.63
2022-12-26T10:40:47.416Z,9.74
2022-12-26T10:43:20.422Z,9.63
2022-12-26T10:45:55.426Z,9.57
2022-12-26T10:48:27.946Z,9.62
2022-12-26T10:50:58.607Z,9.76
2022-12-26T10:53:28.441Z,9.83
2022-12-26T10:56:01.480Z,9.70
2022-12-26T10:58:34.723Z,9.59
2022-12-26T11:01:26.924Z,9.30
2022-12-26T11:03:59.120Z,9.10
2022-12-26T11:06:40.515Z,9.10
2022-12-26T11:09:35.616Z,8.80
2022-12-26T11:12:09.291Z,9.13
2022-12-26T11:14:45.084Z,8.81
2022-12-26T11:17:26.570Z,9.09
2022-12-26T11:20:20.067Z,8.89
2022-12-26T11:22:49.844Z,8.86
2022-12-26T11:25:22.790Z,8.83
2022-12-26T11:27:58.151Z,8.72
2022-12-26T11:30:36.426Z,8.99
2022-12-26T11:33:14.655Z,8.71
2022-12-26T11:35:54.730Z,8.90
2022-12-26T11:38:44.051Z,8.55
2022-12-26T11:41:39.254Z,8.41
2022-12-26T11:44:27.818Z,8.43
2022-12-26T11:47:12.782Z,8.45
2022-12-26T11:49:54.418Z,8.33
2022-12-26T11:52:37.493Z,8.62
2022-12-26T11:55:28.065Z,8.52
2022-12-26T11:58:09.466Z,8.26
2022-12-26T12:00:41.478Z,8.13
2022-12-26T12:03:17.171Z,8.23
2022-12-26T12:05:58.780Z,8.22
2022-12-26T12:08:47.168Z,8.17
2022-12-26T12:11:22.675Z,8.19
2022-12-26T12:14:14.663Z,8.21
2022-12-26T12:17:15.823Z,8.05
2022-12-26T12:20:07.558Z,8.12
2022-12-26T12:22:48.756Z,8.08
2022-12-26T12:25:30.128Z,8.18
2022-12-26T12:28:18.944Z,8.13
2022-12-26T12:31:18.714Z,8.47
2022-12-26T12:34:03.639Z,8.44
2022-12-26T12:36:47.575Z,8.65
2022-12-26T12:39:20.386Z,8.39
2022-12-26T12:42:11.586Z,8.43
2022-12-26T12:44:50.359Z,8.55
2022-12-26T12:47:28.115Z,8.25
2022-12-26T12:50:19.929Z,8.20
2022-12-26T12:53:10.145Z,8.06
2022-12-26T12:55:48.165Z,7.90
2022-12-26T12:58:46.030Z,8.49
2022-12-26T13:01:24.452Z,8.49
2022-12-26T13:04:12.025Z,8.44
2022-12-26T13:06:44.900Z,8.61
2022-12-26T13:09:20.358Z,8.32
2022-12-26T13:11:55.559Z,8.26
2022-12-26T13:14:30.657Z,8.22
2022-12-26T13:17:19.273Z,8.23
2022-12-26T13:20:02.631Z,8.28
2022-12-26T13:22:56.048Z,8.21
2022-12-26T13:25:29.942Z,8.30
2022-12-26T13:28:04.899Z,7.75
2022-12-26T13:30:34.494Z,7.75
2022-12-26T13:33:06.168Z,7.86
2022-12-26T13:35:57.939Z,7.92
2022-12-26T13:38:53.885Z,7.78
2022-12-26T13:41:37.329Z,7.77
2022-12-26T13:44:19.099Z,7.68
2022-12-26T13:46:51.702Z,7.59
2022-12-26T13:49:38.920Z,7.69
2022-12-26T13:52:18.219Z,7.61
2022-12-26T13:54:53.979Z,7.75
2022-12-26T13:57:42.665Z,7.69
2022-12-26T14:00:15.292Z,7.72
2022-12-26T14:03:19.704Z,7.76
2022-12-26T14:05:58.564Z,7.57
2022-12-26T14:08:55.017Z,7.40
2022-12-26T14:11:37.111Z,7.31
2022-12-26T14:14:20.083Z,7.61
2022-12-26T14:16:55.850Z,7.42
2022-12-26T14:19:43.081Z,7.11
2022-12-26T14:22:18.406Z,7.08
2022-12-26T14:25:21.223Z,7.04
2022-12-26T14:28:14.816Z,7.02
2022-12-26T14:30:59.367Z,7.10
2022-12-26T14:33:48.336Z,7.16
2022-12-26T14:36:43.458Z,7.04
2022-12-26T14:42:34.024Z,6.96
2022-12-26T14:45:05.751Z,7.18
2022-12-26T14:47:49.803Z,7.00
2022-12-26T14:50:37.496Z,6.79
2022-12-26T14:53:27.781Z,6.83
2022-12-26T14:56:13.851Z,6.73
2022-12-26T14:58:49.246Z,6.72
2022-12-26T15:01:24.955Z,6.69
2022-12-26T15:04:20.337Z,6.54
2022-12-26T15:07:14.079Z,6.47
2022-12-26T15:10:19.072Z,6.68
2022-12-26T15:13:09.544Z,6.65
2022-12-26T15:16:03.169Z,6.45
2022-12-26T15:19:07.321Z,6.35
2022-12-26T15:21:56.570Z,6.38
2022-12-26T15:25:16.994Z,6.43
2022-12-26T15:27:29.303Z,6.23
2022-12-26T15:30:18.556Z,6.15
2022-12-26T15:33:00.263Z,6.28
2022-12-26T15:35:38.829Z,5.83
2022-12-26T15:38:16.354Z,5.97
2022-12-26T15:41:12.690Z,5.80
2022-12-26T15:43:45.490Z,5.80
2022-12-26T15:46:36.070Z,5.86
2022-12-26T15:49:09.119Z,5.68
2022-12-26T15:51:58.424Z,5.68
2022-12-26T15:54:49.391Z,5.67
2022-12-26T15:57:33.656Z,5.66
2022-12-26T16:00:18.171Z,5.59
2022-12-26T16:03:08.879Z,5.44
2022-12-26T16:05:59.448Z,5.60
2022-12-26T16:08:43.824Z,5.67
2022-12-26T16:11:25.881Z,5.44
2022-12-26T16:14:00.963Z,5.69
2022-12-26T16:16:37.221Z,5.61
2022-12-26T16:19:18.117Z,5.60
2022-12-26T16:22:08.590Z,5.56
2022-12-26T16:24:41.348Z,5.39
2022-12-26T16:27:14.152Z,5.39
2022-12-26T16:29:49.399Z,5.49
2022-12-26T16:32:21.971Z,5.44
2022-12-26T16:34:52.050Z,5.23
2022-12-26T16:37:24.687Z,5.32
2022-12-26T16:40:09.244Z,5.20
2022-12-26T16:42:40.678Z,5.28
2022-12-26T16:47:55.469Z,5.12
2022-12-26T16:50:28.456Z,4.95
2022-12-26T16:53:13.250Z,5.01
2022-12-26T16:55:54.305Z,4.91
2022-12-26T16:58:26.870Z,4.91
2022-12-26T17:01:02.264Z,4.81
2022-12-26T17:03:58.983Z,4.69
2022-12-26T17:06:33.961Z,4.81
2022-12-26T17:09:09.398Z,4.89
2022-12-26T17:11:53.433Z,4.88
2022-12-26T17:14:29.136Z,4.80
2022-12-26T17:17:01.282Z,4.84
2022-12-26T17:19:33.275Z,4.71
2022-12-26T17:22:20.237Z,4.50
2022-12-26T17:24:52.493Z,4.54
2022-12-26T17:27:27.268Z,4.60
2022-12-26T17:30:00.960Z,4.55
2022-12-26T17:32:36.792Z,4.60
2022-12-26T17:35:13.578Z,4.73
2022-12-26T17:37:44.547Z,4.76
2022-12-26T17:40:19.844Z,4.66
2022-12-26T17:43:15.591Z,4.56
2022-12-26T17:45:47.124Z,4.55
2022-12-26T17:48:17.125Z,4.45
2022-12-26T17:50:49.669Z,4.37
2022-12-26T17:53:26.439Z,4.43
2022-12-26T17:55:57.537Z,4.42
2022-12-26T17:58:27.632Z,4.37
2022-12-26T18:00:59.106Z,4.29
2022-12-26T18:03:29.708Z,4.43
2022-12-26T18:05:59.521Z,4.16
2022-12-26T18:08:32.266Z,4.32
2022-12-26T18:11:04.447Z,4.20
2022-12-26T18:13:34.194Z,4.11
2022-12-26T18:16:05.441Z,4.30
2022-12-26T18:18:40.161Z,4.35
2022-12-26T18:21:12.667Z,4.18
2022-12-26T18:23:42.393Z,4.10
2022-12-26T18:26:17.789Z,4.11
2022-12-26T18:28:50.608Z,4.01
2022-12-26T18:31:20.405Z,4.08
2022-12-26T18:33:50.955Z,4.05
2022-12-26T18:36:23.231Z,3.96
2022-12-26T18:38:52.962Z,4.02
2022-12-26T18:41:22.777Z,4.02
2022-12-26T18:43:53.010Z,3.92
2022-12-26T18:46:24.877Z,3.92
2022-12-26T18:48:56.644Z,4.08
2022-12-26T18:51:29.407Z,4.03
2022-12-26T18:53:59.509Z,4.13
2022-12-26T18:56:28.997Z,4.05
2022-12-26T18:58:58.764Z,4.05
2022-12-26T19:01:28.701Z,4.01
2022-12-26T19:03:58.689Z,4.12
2022-12-26T19:06:32.320Z,4.09
2022-12-26T19:09:02.715Z,4.02
2022-12-26T19:11:32.519Z,3.92
2022-12-26T19:14:02.050Z,3.91
2022-12-26T19:16:31.948Z,3.95
2022-12-26T19:19:01.759Z,4.14
2022-12-26T19:21:31.663Z,4.11
2022-12-26T19:24:01.498Z,4.02
2022-12-26T19:26:31.237Z,4.22
2022-12-26T19:29:01.362Z,4.07
2022-12-26T19:31:30.882Z,4.26
2022-12-26T19:34:00.968Z,4.34
2022-12-26T19:36:30.745Z,4.16
2022-12-26T19:39:01.035Z,4.32
2022-12-26T19:41:31.347Z,4.25
2022-12-26T19:44:01.999Z,4.18
2022-12-26T19:46:31.429Z,4.50
2022-12-26T19:49:01.174Z,4.51
2022-12-26T19:51:30.985Z,4.45
2022-12-26T19:54:01.072Z,4.28
2022-12-26T19:56:31.037Z,4.48
2022-12-26T19:59:01.254Z,4.33
2022-12-26T20:01:32.953Z,4.55
2022-12-26T20:04:06.924Z,4.26
2022-12-26T20:06:39.235Z,4.48
2022-12-26T20:09:11.258Z,4.61
2022-12-26T20:11:44.571Z,4.61
2022-12-26T20:14:19.296Z,4.54
2022-12-26T20:17:07.854Z,4.47
2022-12-26T20:19:23.731Z,4.37
2022-12-26T20:21:54.255Z,4.42
2022-12-26T20:24:24.740Z,4.37
2022-12-26T20:26:54.946Z,4.37
2022-12-26T20:29:25.002Z,4.35
2022-12-26T20:31:55.312Z,4.42
2022-12-26T20:34:25.105Z,4.24
2022-12-26T20:36:54.910Z,4.40
2022-12-26T20:39:25.642Z,4.43
2022-12-26T20:41:55.815Z,4.31
2022-12-26T20:44:25.387Z,4.20
2022-12-26T20:46:55.122Z,4.20
2022-12-26T20:49:24.877Z,4.52
2022-12-26T20:51:54.653Z,4.44
2022-12-26T20:54:24.777Z,4.19
2022-12-26T20:56:54.841Z,4.15
2022-12-26T20:59:24.894Z,4.24
2022-12-26T21:01:54.764Z,4.31
2022-12-26T21:04:24.488Z,4.22
2022-12-26T21:06:54.252Z,4.25
2022-12-26T21:09:24.166Z,4.23
2022-12-26T21:11:53.874Z,4.19
2022-12-26T21:14:24.260Z,3.98
2022-12-26T21:16:56.757Z,4.12
2022-12-26T21:19:29.320Z,4.15
2022-12-26T21:21:59.205Z,4.17
2022-12-26T21:24:31.182Z,4.07
2022-12-26T21:27:01.491Z,4.08
2022-12-26T21:29:34.146Z,4.09
2022-12-26T21:32:05.033Z,4.14
2022-12-26T21:34:35.816Z,4.14
2022-12-26T21:37:23.323Z,4.16
2022-12-26T21:39:53.425Z,4.24
2022-12-26T21:42:23.241Z,4.20
2022-12-26T21:44:56.071Z,3.99
2022-12-26T21:47:26.101Z,3.97
2022-12-26T21:49:56.192Z,3.95
2022-12-26T21:52:25.992Z,4.12
2022-12-26T21:55:13.612Z,3.94
2022-12-26T21:57:43.785Z,3.85
2022-12-26T22:00:13.920Z,3.99
2022-12-26T22:03:01.872Z,3.84
2022-12-26T22:05:41.490Z,3.90
2022-12-26T22:08:12.108Z,3.88
2022-12-26T22:11:02.381Z,3.78
2022-12-26T22:13:40.994Z,3.89
2022-12-26T22:16:12.118Z,3.78
2022-12-26T22:18:44.942Z,3.91
2022-12-26T22:21:19.751Z,3.85
2022-12-26T22:23:51.036Z,3.85
2022-12-26T22:26:22.870Z,3.79
2022-12-26T22:28:53.278Z,3.99
2022-12-26T22:31:32.215Z,3.83
2022-12-26T22:34:04.750Z,3.92
2022-12-26T22:36:35.566Z,3.91
2022-12-26T22:39:05.826Z,3.91
2022-12-26T22:41:37.413Z,3.96
2022-12-26T22:44:08.141Z,3.96
2022-12-26T22:46:37.927Z,4.02
2022-12-26T22:49:08.150Z,3.88
2022-12-26T22:51:37.727Z,4.05
2022-12-26T22:54:08.010Z,3.96
2022-12-26T22:56:37.724Z,4.10
2022-12-26T22:59:07.839Z,3.99
2022-12-26T23:01:37.703Z,3.87
2022-12-26T23:04:07.839Z,3.89
2022-12-26T23:06:39.770Z,3.97
2022-12-26T23:09:15.375Z,3.75
2022-12-26T23:11:46.978Z,3.94
2022-12-26T23:14:18.966Z,3.94
2022-12-26T23:16:57.745Z,4.01
2022-12-26T23:19:50.103Z,4.04
2022-12-26T23:22:19.879Z,3.77
2022-12-26T23:24:49.577Z,3.69
2022-12-26T23:27:37.029Z,3.79
2022-12-26T23:30:20.222Z,3.87
2022-12-26T23:32:54.054Z,3.89
2022-12-26T23:35:24.559Z,3.88
2022-12-26T23:37:55.060Z,3.80
2022-12-26T23:40:24.951Z,3.90
2022-12-26T23:42:54.936Z,3.65
2022-12-26T23:45:24.696Z,3.74
2022-12-26T23:47:54.772Z,3.76
2022-12-26T23:50:24.424Z,3.78
2022-12-26T23:52:54.261Z,3.69
2022-12-26T23:55:23.982Z,3.69
2022-12-26T23:57:55.208Z,3.75
